sensor_id;sensor_type;location;lat;lon;timestamp;P1;durP1;ratioP1;P2;durP2;ratioP2
3341;SDS011;1684;50.748;6.154;2024-02-16T00:00:13;10.90;;;2.80;;
3341;SDS011;1684;50.748;6.154;2024-02-16T00:02:43;5.17;;;2.40;;
3341;SDS011;1684;50.748;6.154;2024-02-16T00:05:13;5.63;;;2.23;;
3341;SDS011;1684;50.748;6.154;2024-02-16T00:07:43;6.77;;;2.80;;
3341;SDS011;1684;50.748;6.154;2024-02-16T00:10:11;5.23;;;2.37;;
3341;SDS011;1684;50.748;6.154;2024-02-16T00:12:40;5.57;;;2.17;;
3341;SDS011;1684;50.748;6.154;2024-02-16T00:15:09;5.33;;;2.23;;
3341;SDS011;1684;50.748;6.154;2024-02-16T00:17:38;6.33;;;2.50;;
3341;SDS011;1684;50.748;6.154;2024-02-16T00:20:07;4.37;;;1.97;;
3341;SDS011;1684;50.748;6.154;2024-02-16T00:22:39;6.93;;;2.27;;
3341;SDS011;1684;50.748;6.154;2024-02-16T00:25:09;5.83;;;2.10;;
3341;SDS011;1684;50.748;6.154;2024-02-16T00:27:37;6.40;;;2.67;;
3341;SDS011;1684;50.748;6.154;2024-02-16T00:30:07;4.07;;;2.00;;
3341;SDS011;1684;50.748;6.154;2024-02-16T00:32:37;4.80;;;2.27;;
3341;SDS011;1684;50.748;6.154;2024-02-16T00:35:06;4.07;;;1.83;;
3341;SDS011;1684;50.748;6.154;2024-02-16T00:37:34;6.70;;;2.43;;
3341;SDS011;1684;50.748;6.154;2024-02-16T00:40:04;7.90;;;2.37;;
3341;SDS011;1684;50.748;6.154;2024-02-16T00:42:35;5.53;;;2.70;;
3341;SDS011;1684;50.748;6.154;2024-02-16T00:45:04;4.23;;;2.10;;
3341;SDS011;1684;50.748;6.154;2024-02-16T00:47:32;4.60;;;2.00;;
3341;SDS011;1684;50.748;6.154;2024-02-16T00:50:01;4.80;;;2.33;;
3341;SDS011;1684;50.748;6.154;2024-02-16T00:52:32;4.50;;;2.17;;
3341;SDS011;1684;50.748;6.154;2024-02-16T00:55:01;4.40;;;2.17;;
3341;SDS011;1684;50.748;6.154;2024-02-16T00:57:30;5.60;;;2.23;;
3341;SDS011;1684;50.748;6.154;2024-02-16T01:00:02;4.30;;;2.20;;
3341;SDS011;1684;50.748;6.154;2024-02-16T01:02:30;5.67;;;2.37;;
3341;SDS011;1684;50.748;6.154;2024-02-16T01:05:00;5.30;;;2.03;;
3341;SDS011;1684;50.748;6.154;2024-02-16T01:07:29;5.10;;;1.80;;
3341;SDS011;1684;50.748;6.154;2024-02-16T01:09:59;6.00;;;2.83;;
3341;SDS011;1684;50.748;6.154;2024-02-16T01:12:29;4.67;;;1.90;;
3341;SDS011;1684;50.748;6.154;2024-02-16T01:14:58;3.93;;;1.93;;
3341;SDS011;1684;50.748;6.154;2024-02-16T01:17:29;4.50;;;2.33;;
3341;SDS011;1684;50.748;6.154;2024-02-16T01:19:58;6.47;;;2.77;;
3341;SDS011;1684;50.748;6.154;2024-02-16T01:22:27;4.63;;;2.07;;
3341;SDS011;1684;50.748;6.154;2024-02-16T01:24:56;5.30;;;2.40;;
3341;SDS011;1684;50.748;6.154;2024-02-16T01:27:25;8.87;;;2.50;;
3341;SDS011;1684;50.748;6.154;2024-02-16T01:29:54;5.83;;;2.57;;
3341;SDS011;1684;50.748;6.154;2024-02-16T01:32:22;5.37;;;2.60;;
3341;SDS011;1684;50.748;6.154;2024-02-16T01:34:52;6.43;;;2.20;;
3341;SDS011;1684;50.748;6.154;2024-02-16T01:37:21;5.50;;;2.13;;
3341;SDS011;1684;50.748;6.154;2024-02-16T01:39:49;5.40;;;2.43;;
3341;SDS011;1684;50.748;6.154;2024-02-16T01:42:18;4.50;;;2.20;;
3341;SDS011;1684;50.748;6.154;2024-02-16T01:44:46;4.00;;;2.10;;
3341;SDS011;1684;50.748;6.154;2024-02-16T01:47:14;5.73;;;2.67;;
3341;SDS011;1684;50.748;6.154;2024-02-16T01:49:44;4.70;;;2.30;;
3341;SDS011;1684;50.748;6.154;2024-02-16T01:52:14;7.83;;;2.83;;
3341;SDS011;1684;50.748;6.154;2024-02-16T01:54:42;4.63;;;2.30;;
3341;SDS011;1684;50.748;6.154;2024-02-16T01:57:11;5.60;;;3.07;;
3341;SDS011;1684;50.748;6.154;2024-02-16T01:59:40;4.80;;;2.40;;
3341;SDS011;1684;50.748;6.154;2024-02-16T02:02:09;6.37;;;3.00;;
3341;SDS011;1684;50.748;6.154;2024-02-16T02:04:37;4.60;;;2.30;;
3341;SDS011;1684;50.748;6.154;2024-02-16T02:07:11;7.17;;;3.37;;
3341;SDS011;1684;50.748;6.154;2024-02-16T02:09:41;5.47;;;2.50;;
3341;SDS011;1684;50.748;6.154;2024-02-16T02:12:09;5.83;;;2.50;;
3341;SDS011;1684;50.748;6.154;2024-02-16T02:14:38;5.03;;;2.27;;
3341;SDS011;1684;50.748;6.154;2024-02-16T02:17:06;7.53;;;2.30;;
3341;SDS011;1684;50.748;6.154;2024-02-16T02:19:35;6.33;;;2.40;;
3341;SDS011;1684;50.748;6.154;2024-02-16T02:22:03;5.53;;;2.83;;
3341;SDS011;1684;50.748;6.154;2024-02-16T02:24:34;7.43;;;2.60;;
3341;SDS011;1684;50.748;6.154;2024-02-16T02:27:02;5.80;;;2.30;;
3341;SDS011;1684;50.748;6.154;2024-02-16T02:29:30;6.70;;;2.70;;
3341;SDS011;1684;50.748;6.154;2024-02-16T02:31:59;5.07;;;2.53;;
3341;SDS011;1684;50.748;6.154;2024-02-16T02:34:28;5.37;;;2.50;;
3341;SDS011;1684;50.748;6.154;2024-02-16T02:36:57;7.80;;;2.43;;
3341;SDS011;1684;50.748;6.154;2024-02-16T02:39:26;8.97;;;3.20;;
3341;SDS011;1684;50.748;6.154;2024-02-16T02:41:56;5.10;;;2.70;;
3341;SDS011;1684;50.748;6.154;2024-02-16T02:44:25;4.97;;;2.77;;
3341;SDS011;1684;50.748;6.154;2024-02-16T02:46:53;5.10;;;2.17;;
3341;SDS011;1684;50.748;6.154;2024-02-16T02:49:21;5.13;;;2.83;;
3341;SDS011;1684;50.748;6.154;2024-02-16T02:51:50;6.20;;;2.60;;
3341;SDS011;1684;50.748;6.154;2024-02-16T02:54:18;4.80;;;2.70;;
3341;SDS011;1684;50.748;6.154;2024-02-16T02:56:47;8.50;;;3.03;;
3341;SDS011;1684;50.748;6.154;2024-02-16T02:59:17;6.80;;;2.53;;
3341;SDS011;1684;50.748;6.154;2024-02-16T03:01:45;7.20;;;3.00;;
3341;SDS011;1684;50.748;6.154;2024-02-16T03:04:14;6.40;;;2.40;;
3341;SDS011;1684;50.748;6.154;2024-02-16T03:06:42;7.40;;;3.30;;
3341;SDS011;1684;50.748;6.154;2024-02-16T03:09:10;6.97;;;3.07;;
3341;SDS011;1684;50.748;6.154;2024-02-16T03:11:39;6.20;;;2.80;;
3341;SDS011;1684;50.748;6.154;2024-02-16T03:14:09;6.83;;;2.60;;
3341;SDS011;1684;50.748;6.154;2024-02-16T03:16:39;5.70;;;3.10;;
3341;SDS011;1684;50.748;6.154;2024-02-16T03:19:07;7.90;;;3.50;;
3341;SDS011;1684;50.748;6.154;2024-02-16T03:21:37;5.83;;;2.80;;
3341;SDS011;1684;50.748;6.154;2024-02-16T03:24:05;5.63;;;2.90;;
3341;SDS011;1684;50.748;6.154;2024-02-16T03:26:36;4.87;;;2.80;;
3341;SDS011;1684;50.748;6.154;2024-02-16T03:29:05;5.30;;;2.63;;
3341;SDS011;1684;50.748;6.154;2024-02-16T03:31:34;5.53;;;3.00;;
3341;SDS011;1684;50.748;6.154;2024-02-16T03:34:04;6.50;;;3.37;;
3341;SDS011;1684;50.748;6.154;2024-02-16T03:36:32;4.80;;;2.63;;
3341;SDS011;1684;50.748;6.154;2024-02-16T03:39:01;5.93;;;2.80;;
3341;SDS011;1684;50.748;6.154;2024-02-16T03:41:29;5.53;;;3.20;;
3341;SDS011;1684;50.748;6.154;2024-02-16T03:43:58;7.97;;;3.30;;
3341;SDS011;1684;50.748;6.154;2024-02-16T03:46:26;7.73;;;3.13;;
3341;SDS011;1684;50.748;6.154;2024-02-16T03:48:55;4.90;;;2.90;;
3341;SDS011;1684;50.748;6.154;2024-02-16T03:51:26;7.03;;;2.93;;
3341;SDS011;1684;50.748;6.154;2024-02-16T03:53:55;5.87;;;2.90;;
3341;SDS011;1684;50.748;6.154;2024-02-16T03:56:24;6.97;;;3.37;;
3341;SDS011;1684;50.748;6.154;2024-02-16T03:58:52;6.10;;;3.00;;
3341;SDS011;1684;50.748;6.154;2024-02-16T04:01:20;6.87;;;3.10;;
3341;SDS011;1684;50.748;6.154;2024-02-16T04:03:49;8.20;;;2.70;;
3341;SDS011;1684;50.748;6.154;2024-02-16T04:06:18;5.87;;;3.00;;
3341;SDS011;1684;50.748;6.154;2024-02-16T04:08:48;6.57;;;3.40;;
3341;SDS011;1684;50.748;6.154;2024-02-16T04:11:16;8.33;;;2.90;;
3341;SDS011;1684;50.748;6.154;2024-02-16T04:13:45;5.83;;;2.70;;
3341;SDS011;1684;50.748;6.154;2024-02-16T04:16:14;7.10;;;2.83;;
3341;SDS011;1684;50.748;6.154;2024-02-16T04:18:43;6.20;;;3.07;;
3341;SDS011;1684;50.748;6.154;2024-02-16T04:21:12;7.47;;;3.00;;
3341;SDS011;1684;50.748;6.154;2024-02-16T04:23:43;6.23;;;3.10;;
3341;SDS011;1684;50.748;6.154;2024-02-16T04:26:13;7.63;;;3.40;;
3341;SDS011;1684;50.748;6.154;2024-02-16T04:28:42;7.03;;;3.80;;
3341;SDS011;1684;50.748;6.154;2024-02-16T04:31:10;5.53;;;3.23;;
3341;SDS011;1684;50.748;6.154;2024-02-16T04:33:39;10.63;;;4.23;;
3341;SDS011;1684;50.748;6.154;2024-02-16T04:36:08;5.70;;;3.33;;
3341;SDS011;1684;50.748;6.154;2024-02-16T04:38:36;8.17;;;3.80;;
3341;SDS011;1684;50.748;6.154;2024-02-16T04:41:04;7.73;;;3.40;;
3341;SDS011;1684;50.748;6.154;2024-02-16T04:43:35;6.00;;;3.03;;
3341;SDS011;1684;50.748;6.154;2024-02-16T04:46:03;7.60;;;2.90;;
3341;SDS011;1684;50.748;6.154;2024-02-16T04:48:32;8.77;;;3.17;;
3341;SDS011;1684;50.748;6.154;2024-02-16T04:51:00;7.67;;;3.47;;
3341;SDS011;1684;50.748;6.154;2024-02-16T04:53:29;5.53;;;2.83;;
3341;SDS011;1684;50.748;6.154;2024-02-16T04:55:57;8.43;;;3.10;;
3341;SDS011;1684;50.748;6.154;2024-02-16T04:58:28;6.37;;;3.37;;
3341;SDS011;1684;50.748;6.154;2024-02-16T05:00:58;7.03;;;2.83;;
3341;SDS011;1684;50.748;6.154;2024-02-16T05:03:27;8.70;;;3.13;;
3341;SDS011;1684;50.748;6.154;2024-02-16T05:05:55;5.00;;;2.60;;
3341;SDS011;1684;50.748;6.154;2024-02-16T05:08:24;6.77;;;3.57;;
3341;SDS011;1684;50.748;6.154;2024-02-16T05:10:52;8.57;;;3.77;;
3341;SDS011;1684;50.748;6.154;2024-02-16T05:13:21;7.90;;;3.17;;
3341;SDS011;1684;50.748;6.154;2024-02-16T05:15:50;6.73;;;3.20;;
3341;SDS011;1684;50.748;6.154;2024-02-16T05:18:23;8.63;;;3.60;;
3341;SDS011;1684;50.748;6.154;2024-02-16T05:20:52;7.10;;;2.93;;
3341;SDS011;1684;50.748;6.154;2024-02-16T05:23:20;6.23;;;2.73;;
3341;SDS011;1684;50.748;6.154;2024-02-16T05:25:49;6.13;;;2.50;;
3341;SDS011;1684;50.748;6.154;2024-02-16T05:28:17;6.53;;;3.27;;
3341;SDS011;1684;50.748;6.154;2024-02-16T05:30:46;7.20;;;3.80;;
3341;SDS011;1684;50.748;6.154;2024-02-16T05:33:14;5.93;;;3.13;;
3341;SDS011;1684;50.748;6.154;2024-02-16T05:35:44;9.20;;;3.17;;
3341;SDS011;1684;50.748;6.154;2024-02-16T05:38:17;5.33;;;2.53;;
3341;SDS011;1684;50.748;6.154;2024-02-16T05:40:59;7.43;;;3.53;;
3341;SDS011;1684;50.748;6.154;2024-02-16T05:43:27;6.40;;;3.27;;
3341;SDS011;1684;50.748;6.154;2024-02-16T05:45:55;7.47;;;3.23;;
3341;SDS011;1684;50.748;6.154;2024-02-16T05:48:24;8.80;;;3.50;;
3341;SDS011;1684;50.748;6.154;2024-02-16T05:50:59;7.43;;;3.20;;
3341;SDS011;1684;50.748;6.154;2024-02-16T05:53:28;5.10;;;3.13;;
3341;SDS011;1684;50.748;6.154;2024-02-16T05:55:57;6.50;;;3.77;;
3341;SDS011;1684;50.748;6.154;2024-02-16T05:58:26;7.17;;;3.50;;
3341;SDS011;1684;50.748;6.154;2024-02-16T06:00:55;8.63;;;3.00;;
3341;SDS011;1684;50.748;6.154;2024-02-16T06:03:24;8.50;;;2.83;;
3341;SDS011;1684;50.748;6.154;2024-02-16T06:05:53;8.83;;;3.47;;
3341;SDS011;1684;50.748;6.154;2024-02-16T06:08:24;8.97;;;3.50;;
3341;SDS011;1684;50.748;6.154;2024-02-16T06:10:56;5.47;;;3.53;;
3341;SDS011;1684;50.748;6.154;2024-02-16T06:13:24;8.90;;;3.60;;
3341;SDS011;1684;50.748;6.154;2024-02-16T06:15:53;5.40;;;2.90;;
3341;SDS011;1684;50.748;6.154;2024-02-16T06:18:21;6.27;;;3.27;;
3341;SDS011;1684;50.748;6.154;2024-02-16T06:20:50;6.90;;;3.20;;
3341;SDS011;1684;50.748;6.154;2024-02-16T06:23:18;7.43;;;3.00;;
3341;SDS011;1684;50.748;6.154;2024-02-16T06:25:49;6.80;;;3.33;;
3341;SDS011;1684;50.748;6.154;2024-02-16T06:28:17;7.73;;;3.63;;
3341;SDS011;1684;50.748;6.154;2024-02-16T06:30:46;9.67;;;3.50;;
3341;SDS011;1684;50.748;6.154;2024-02-16T06:33:15;8.83;;;4.10;;
3341;SDS011;1684;50.748;6.154;2024-02-16T06:35:45;10.53;;;3.80;;
3341;SDS011;1684;50.748;6.154;2024-02-16T06:38:16;9.03;;;3.57;;
3341;SDS011;1684;50.748;6.154;2024-02-16T06:40:45;6.30;;;3.27;;
3341;SDS011;1684;50.748;6.154;2024-02-16T06:43:15;6.13;;;3.60;;
3341;SDS011;1684;50.748;6.154;2024-02-16T06:45:43;9.73;;;3.80;;
3341;SDS011;1684;50.748;6.154;2024-02-16T06:48:11;7.10;;;3.07;;
3341;SDS011;1684;50.748;6.154;2024-02-16T06:50:40;7.90;;;3.50;;
3341;SDS011;1684;50.748;6.154;2024-02-16T06:53:08;8.10;;;3.53;;
3341;SDS011;1684;50.748;6.154;2024-02-16T06:55:37;8.70;;;2.67;;
3341;SDS011;1684;50.748;6.154;2024-02-16T06:58:05;6.37;;;2.80;;
3341;SDS011;1684;50.748;6.154;2024-02-16T07:00:35;8.40;;;3.40;;
3341;SDS011;1684;50.748;6.154;2024-02-16T07:03:03;9.20;;;3.67;;
3341;SDS011;1684;50.748;6.154;2024-02-16T07:05:33;7.63;;;3.97;;
3341;SDS011;1684;50.748;6.154;2024-02-16T07:08:03;8.00;;;3.50;;
3341;SDS011;1684;50.748;6.154;2024-02-16T07:10:32;8.70;;;3.03;;
3341;SDS011;1684;50.748;6.154;2024-02-16T07:13:01;7.70;;;3.60;;
3341;SDS011;1684;50.748;6.154;2024-02-16T07:15:30;6.57;;;3.40;;
3341;SDS011;1684;50.748;6.154;2024-02-16T07:18:00;7.90;;;3.57;;
3341;SDS011;1684;50.748;6.154;2024-02-16T07:20:30;7.37;;;3.80;;
3341;SDS011;1684;50.748;6.154;2024-02-16T07:22:59;8.90;;;3.80;;
3341;SDS011;1684;50.748;6.154;2024-02-16T07:25:27;8.53;;;3.60;;
3341;SDS011;1684;50.748;6.154;2024-02-16T07:27:55;10.60;;;3.90;;
3341;SDS011;1684;50.748;6.154;2024-02-16T07:30:24;4.80;;;2.93;;
3341;SDS011;1684;50.748;6.154;2024-02-16T07:33:06;11.67;;;3.77;;
3341;SDS011;1684;50.748;6.154;2024-02-16T07:35:35;5.90;;;3.13;;
3341;SDS011;1684;50.748;6.154;2024-02-16T07:38:04;13.77;;;4.33;;
3341;SDS011;1684;50.748;6.154;2024-02-16T07:40:33;8.27;;;3.50;;
3341;SDS011;1684;50.748;6.154;2024-02-16T07:43:01;7.57;;;3.70;;
3341;SDS011;1684;50.748;6.154;2024-02-16T07:45:31;7.10;;;3.93;;
3341;SDS011;1684;50.748;6.154;2024-02-16T07:47:59;5.90;;;3.60;;
3341;SDS011;1684;50.748;6.154;2024-02-16T07:50:33;7.53;;;3.43;;
3341;SDS011;1684;50.748;6.154;2024-02-16T07:53:01;10.87;;;3.53;;
3341;SDS011;1684;50.748;6.154;2024-02-16T07:55:29;6.80;;;3.70;;
3341;SDS011;1684;50.748;6.154;2024-02-16T07:57:58;13.30;;;3.57;;
3341;SDS011;1684;50.748;6.154;2024-02-16T08:00:26;8.17;;;4.07;;
3341;SDS011;1684;50.748;6.154;2024-02-16T08:02:55;8.70;;;3.27;;
3341;SDS011;1684;50.748;6.154;2024-02-16T08:05:23;6.87;;;3.13;;
3341;SDS011;1684;50.748;6.154;2024-02-16T08:07:54;7.17;;;3.70;;
3341;SDS011;1684;50.748;6.154;2024-02-16T08:10:22;10.50;;;3.30;;
3341;SDS011;1684;50.748;6.154;2024-02-16T08:12:51;8.37;;;3.70;;
3341;SDS011;1684;50.748;6.154;2024-02-16T08:15:20;5.90;;;3.27;;
3341;SDS011;1684;50.748;6.154;2024-02-16T08:17:51;7.07;;;3.67;;
3341;SDS011;1684;50.748;6.154;2024-02-16T08:20:19;8.33;;;3.97;;
3341;SDS011;1684;50.748;6.154;2024-02-16T08:22:48;10.10;;;3.80;;
3341;SDS011;1684;50.748;6.154;2024-02-16T08:25:17;8.63;;;4.00;;
3341;SDS011;1684;50.748;6.154;2024-02-16T08:27:46;8.10;;;4.10;;
3341;SDS011;1684;50.748;6.154;2024-02-16T08:30:15;8.43;;;3.70;;
3341;SDS011;1684;50.748;6.154;2024-02-16T08:32:44;9.27;;;5.03;;
3341;SDS011;1684;50.748;6.154;2024-02-16T08:35:12;10.20;;;4.10;;
3341;SDS011;1684;50.748;6.154;2024-02-16T08:37:43;9.40;;;3.40;;
3341;SDS011;1684;50.748;6.154;2024-02-16T08:40:13;6.33;;;4.00;;
3341;SDS011;1684;50.748;6.154;2024-02-16T08:42:42;7.97;;;3.90;;
3341;SDS011;1684;50.748;6.154;2024-02-16T08:45:11;6.40;;;3.70;;
3341;SDS011;1684;50.748;6.154;2024-02-16T08:47:40;8.73;;;3.40;;
3341;SDS011;1684;50.748;6.154;2024-02-16T08:50:08;6.63;;;3.57;;
3341;SDS011;1684;50.748;6.154;2024-02-16T08:52:37;7.07;;;3.40;;
3341;SDS011;1684;50.748;6.154;2024-02-16T08:55:06;6.50;;;3.70;;
3341;SDS011;1684;50.748;6.154;2024-02-16T08:57:34;13.10;;;4.10;;
3341;SDS011;1684;50.748;6.154;2024-02-16T09:00:05;8.27;;;3.50;;
3341;SDS011;1684;50.748;6.154;2024-02-16T09:02:35;7.20;;;3.37;;
3341;SDS011;1684;50.748;6.154;2024-02-16T09:05:04;6.50;;;3.47;;
3341;SDS011;1684;50.748;6.154;2024-02-16T09:07:32;14.60;;;4.67;;
3341;SDS011;1684;50.748;6.154;2024-02-16T09:10:01;8.00;;;3.27;;
3341;SDS011;1684;50.748;6.154;2024-02-16T09:12:31;7.33;;;3.27;;
3341;SDS011;1684;50.748;6.154;2024-02-16T09:14:59;14.10;;;3.80;;
3341;SDS011;1684;50.748;6.154;2024-02-16T09:17:29;8.10;;;3.00;;
3341;SDS011;1684;50.748;6.154;2024-02-16T09:19:57;6.10;;;2.83;;
3341;SDS011;1684;50.748;6.154;2024-02-16T09:22:26;6.53;;;3.30;;
3341;SDS011;1684;50.748;6.154;2024-02-16T09:24:57;5.50;;;3.60;;
3341;SDS011;1684;50.748;6.154;2024-02-16T09:27:26;8.20;;;4.40;;
3341;SDS011;1684;50.748;6.154;2024-02-16T09:29:54;7.23;;;3.90;;
3341;SDS011;1684;50.748;6.154;2024-02-16T09:32:23;8.23;;;3.40;;
3341;SDS011;1684;50.748;6.154;2024-02-16T09:34:53;9.43;;;3.67;;
3341;SDS011;1684;50.748;6.154;2024-02-16T09:37:25;7.10;;;3.60;;
3341;SDS011;1684;50.748;6.154;2024-02-16T09:39:54;6.47;;;2.90;;
3341;SDS011;1684;50.748;6.154;2024-02-16T09:42:22;7.60;;;3.40;;
3341;SDS011;1684;50.748;6.154;2024-02-16T09:44:54;6.33;;;3.73;;
3341;SDS011;1684;50.748;6.154;2024-02-16T09:47:22;10.53;;;3.50;;
3341;SDS011;1684;50.748;6.154;2024-02-16T09:49:54;8.10;;;3.80;;
3341;SDS011;1684;50.748;6.154;2024-02-16T09:52:22;10.73;;;4.13;;
3341;SDS011;1684;50.748;6.154;2024-02-16T09:54:51;10.40;;;4.47;;
3341;SDS011;1684;50.748;6.154;2024-02-16T09:57:20;9.03;;;4.50;;
3341;SDS011;1684;50.748;6.154;2024-02-16T09:59:48;9.03;;;3.40;;
3341;SDS011;1684;50.748;6.154;2024-02-16T10:02:17;13.10;;;3.67;;
3341;SDS011;1684;50.748;6.154;2024-02-16T10:04:45;8.63;;;4.00;;
3341;SDS011;1684;50.748;6.154;2024-02-16T10:07:15;7.17;;;3.70;;
3341;SDS011;1684;50.748;6.154;2024-02-16T10:09:44;8.30;;;4.40;;
3341;SDS011;1684;50.748;6.154;2024-02-16T10:12:17;8.73;;;4.13;;
3341;SDS011;1684;50.748;6.154;2024-02-16T10:14:53;9.20;;;4.07;;
3341;SDS011;1684;50.748;6.154;2024-02-16T10:17:23;9.90;;;5.00;;
3341;SDS011;1684;50.748;6.154;2024-02-16T10:19:55;7.73;;;4.33;;
3341;SDS011;1684;50.748;6.154;2024-02-16T10:22:25;11.70;;;5.30;;
3341;SDS011;1684;50.748;6.154;2024-02-16T10:24:55;6.70;;;4.00;;
3341;SDS011;1684;50.748;6.154;2024-02-16T10:27:23;16.17;;;5.00;;
3341;SDS011;1684;50.748;6.154;2024-02-16T10:29:52;10.03;;;5.20;;
3341;SDS011;1684;50.748;6.154;2024-02-16T10:32:22;8.20;;;3.60;;
3341;SDS011;1684;50.748;6.154;2024-02-16T10:34:52;10.43;;;4.33;;
3341;SDS011;1684;50.748;6.154;2024-02-16T10:37:22;9.00;;;3.87;;
3341;SDS011;1684;50.748;6.154;2024-02-16T10:39:52;13.43;;;5.10;;
3341;SDS011;1684;50.748;6.154;2024-02-16T10:42:24;14.83;;;5.17;;
3341;SDS011;1684;50.748;6.154;2024-02-16T10:44:54;11.30;;;4.53;;
3341;SDS011;1684;50.748;6.154;2024-02-16T10:47:23;8.50;;;4.97;;
3341;SDS011;1684;50.748;6.154;2024-02-16T10:49:52;8.10;;;4.00;;
3341;SDS011;1684;50.748;6.154;2024-02-16T10:52:22;10.07;;;4.90;;
3341;SDS011;1684;50.748;6.154;2024-02-16T10:54:52;9.90;;;4.20;;
3341;SDS011;1684;50.748;6.154;2024-02-16T10:57:22;8.77;;;4.90;;
3341;SDS011;1684;50.748;6.154;2024-02-16T10:59:52;10.37;;;4.53;;
3341;SDS011;1684;50.748;6.154;2024-02-16T11:02:22;9.60;;;5.00;;
3341;SDS011;1684;50.748;6.154;2024-02-16T11:04:52;8.97;;;4.80;;
3341;SDS011;1684;50.748;6.154;2024-02-16T11:07:20;6.60;;;3.87;;
3341;SDS011;1684;50.748;6.154;2024-02-16T11:09:50;11.43;;;4.60;;
3341;SDS011;1684;50.748;6.154;2024-02-16T11:12:19;9.93;;;5.30;;
3341;SDS011;1684;50.748;6.154;2024-02-16T11:14:49;7.50;;;4.60;;
3341;SDS011;1684;50.748;6.154;2024-02-16T11:17:22;16.37;;;5.97;;
3341;SDS011;1684;50.748;6.154;2024-02-16T11:19:53;10.77;;;5.07;;
3341;SDS011;1684;50.748;6.154;2024-02-16T11:22:21;7.60;;;4.10;;
3341;SDS011;1684;50.748;6.154;2024-02-16T11:24:51;11.43;;;5.00;;
3341;SDS011;1684;50.748;6.154;2024-02-16T11:27:28;8.53;;;4.80;;
3341;SDS011;1684;50.748;6.154;2024-02-16T11:30:00;10.73;;;5.10;;
3341;SDS011;1684;50.748;6.154;2024-02-16T11:32:32;11.77;;;5.53;;
3341;SDS011;1684;50.748;6.154;2024-02-16T11:35:04;12.23;;;4.40;;
3341;SDS011;1684;50.748;6.154;2024-02-16T11:37:34;9.57;;;4.80;;
3341;SDS011;1684;50.748;6.154;2024-02-16T11:40:03;7.83;;;5.20;;
3341;SDS011;1684;50.748;6.154;2024-02-16T11:42:36;10.83;;;5.40;;
3341;SDS011;1684;50.748;6.154;2024-02-16T11:45:05;8.53;;;5.30;;
3341;SDS011;1684;50.748;6.154;2024-02-16T11:47:34;11.70;;;4.90;;
3341;SDS011;1684;50.748;6.154;2024-02-16T11:50:03;12.83;;;5.83;;
3341;SDS011;1684;50.748;6.154;2024-02-16T11:52:32;9.20;;;6.20;;
3341;SDS011;1684;50.748;6.154;2024-02-16T11:55:02;16.40;;;7.27;;
3341;SDS011;1684;50.748;6.154;2024-02-16T11:57:31;13.33;;;6.20;;
3341;SDS011;1684;50.748;6.154;2024-02-16T12:00:03;13.53;;;5.00;;
3341;SDS011;1684;50.748;6.154;2024-02-16T12:02:34;11.60;;;6.17;;
3341;SDS011;1684;50.748;6.154;2024-02-16T12:05:04;10.90;;;6.17;;
3341;SDS011;1684;50.748;6.154;2024-02-16T12:07:33;13.40;;;6.43;;
3341;SDS011;1684;50.748;6.154;2024-02-16T12:10:02;11.67;;;6.30;;
3341;SDS011;1684;50.748;6.154;2024-02-16T12:12:32;14.23;;;7.17;;
3341;SDS011;1684;50.748;6.154;2024-02-16T12:15:06;12.57;;;6.03;;
3341;SDS011;1684;50.748;6.154;2024-02-16T12:17:34;13.60;;;8.00;;
3341;SDS011;1684;50.748;6.154;2024-02-16T12:20:10;10.43;;;5.90;;
3341;SDS011;1684;50.748;6.154;2024-02-16T12:22:39;12.23;;;6.40;;
3341;SDS011;1684;50.748;6.154;2024-02-16T12:25:08;9.73;;;5.60;;
3341;SDS011;1684;50.748;6.154;2024-02-16T12:27:36;12.77;;;6.63;;
3341;SDS011;1684;50.748;6.154;2024-02-16T12:30:07;11.33;;;6.13;;
3341;SDS011;1684;50.748;6.154;2024-02-16T12:32:36;10.00;;;6.37;;
3341;SDS011;1684;50.748;6.154;2024-02-16T12:35:05;10.20;;;6.80;;
3341;SDS011;1684;50.748;6.154;2024-02-16T12:37:34;12.23;;;6.33;;
3341;SDS011;1684;50.748;6.154;2024-02-16T12:40:04;9.13;;;6.00;;
3341;SDS011;1684;50.748;6.154;2024-02-16T12:42:33;14.60;;;7.20;;
3341;SDS011;1684;50.748;6.154;2024-02-16T12:45:02;10.10;;;6.20;;
3341;SDS011;1684;50.748;6.154;2024-02-16T12:47:32;12.33;;;6.80;;
3341;SDS011;1684;50.748;6.154;2024-02-16T12:50:00;10.33;;;6.50;;
3341;SDS011;1684;50.748;6.154;2024-02-16T12:52:29;10.30;;;7.03;;
3341;SDS011;1684;50.748;6.154;2024-02-16T12:55:06;12.17;;;6.40;;
3341;SDS011;1684;50.748;6.154;2024-02-16T12:57:37;10.07;;;5.90;;
3341;SDS011;1684;50.748;6.154;2024-02-16T13:00:06;10.27;;;6.40;;
3341;SDS011;1684;50.748;6.154;2024-02-16T13:02:37;11.20;;;6.47;;
3341;SDS011;1684;50.748;6.154;2024-02-16T13:05:05;10.33;;;6.80;;
3341;SDS011;1684;50.748;6.154;2024-02-16T13:07:34;10.00;;;6.60;;
3341;SDS011;1684;50.748;6.154;2024-02-16T13:10:04;12.90;;;7.00;;
3341;SDS011;1684;50.748;6.154;2024-02-16T13:12:33;10.77;;;6.87;;
3341;SDS011;1684;50.748;6.154;2024-02-16T13:15:03;8.77;;;5.77;;
3341;SDS011;1684;50.748;6.154;2024-02-16T13:17:53;12.10;;;6.97;;
3341;SDS011;1684;50.748;6.154;2024-02-16T13:20:22;9.70;;;6.20;;
3341;SDS011;1684;50.748;6.154;2024-02-16T13:22:51;11.30;;;7.00;;
3341;SDS011;1684;50.748;6.154;2024-02-16T13:25:21;9.53;;;6.00;;
3341;SDS011;1684;50.748;6.154;2024-02-16T13:27:49;12.63;;;7.43;;
3341;SDS011;1684;50.748;6.154;2024-02-16T13:30:17;9.77;;;7.23;;
3341;SDS011;1684;50.748;6.154;2024-02-16T13:32:46;9.53;;;6.60;;
3341;SDS011;1684;50.748;6.154;2024-02-16T13:35:16;15.03;;;7.63;;
3341;SDS011;1684;50.748;6.154;2024-02-16T13:37:47;10.90;;;7.43;;
3341;SDS011;1684;50.748;6.154;2024-02-16T13:40:15;13.03;;;7.97;;
3341;SDS011;1684;50.748;6.154;2024-02-16T13:42:44;14.67;;;6.80;;
3341;SDS011;1684;50.748;6.154;2024-02-16T13:45:13;10.77;;;6.40;;
3341;SDS011;1684;50.748;6.154;2024-02-16T13:47:41;13.63;;;7.00;;
3341;SDS011;1684;50.748;6.154;2024-02-16T13:50:11;9.67;;;5.90;;
3341;SDS011;1684;50.748;6.154;2024-02-16T13:52:41;11.30;;;6.93;;
3341;SDS011;1684;50.748;6.154;2024-02-16T13:55:10;11.43;;;6.53;;
3341;SDS011;1684;50.748;6.154;2024-02-16T13:57:39;9.57;;;6.00;;
3341;SDS011;1684;50.748;6.154;2024-02-16T14:00:07;10.60;;;6.77;;
3341;SDS011;1684;50.748;6.154;2024-02-16T14:02:36;9.10;;;5.53;;
3341;SDS011;1684;50.748;6.154;2024-02-16T14:05:05;9.67;;;6.90;;
3341;SDS011;1684;50.748;6.154;2024-02-16T14:07:33;8.20;;;5.30;;
3341;SDS011;1684;50.748;6.154;2024-02-16T14:10:17;8.70;;;6.67;;
3341;SDS011;1684;50.748;6.154;2024-02-16T14:12:46;10.70;;;6.00;;
3341;SDS011;1684;50.748;6.154;2024-02-16T14:15:15;9.10;;;5.17;;
3341;SDS011;1684;50.748;6.154;2024-02-16T14:17:45;9.37;;;6.37;;
3341;SDS011;1684;50.748;6.154;2024-02-16T14:20:13;8.33;;;5.97;;
3341;SDS011;1684;50.748;6.154;2024-02-16T14:22:42;12.00;;;5.70;;
3341;SDS011;1684;50.748;6.154;2024-02-16T14:25:11;7.50;;;4.97;;
3341;SDS011;1684;50.748;6.154;2024-02-16T14:27:41;8.50;;;5.50;;
3341;SDS011;1684;50.748;6.154;2024-02-16T14:30:10;10.50;;;5.53;;
3341;SDS011;1684;50.748;6.154;2024-02-16T14:32:39;8.80;;;5.37;;
3341;SDS011;1684;50.748;6.154;2024-02-16T14:35:08;7.80;;;5.27;;
3341;SDS011;1684;50.748;6.154;2024-02-16T14:37:37;6.80;;;4.73;;
3341;SDS011;1684;50.748;6.154;2024-02-16T14:40:06;8.17;;;5.20;;
3341;SDS011;1684;50.748;6.154;2024-02-16T14:42:38;7.10;;;4.60;;
3341;SDS011;1684;50.748;6.154;2024-02-16T14:45:09;7.23;;;5.00;;
3341;SDS011;1684;50.748;6.154;2024-02-16T14:47:47;6.93;;;4.47;;
3341;SDS011;1684;50.748;6.154;2024-02-16T14:50:19;8.00;;;5.00;;
3341;SDS011;1684;50.748;6.154;2024-02-16T14:52:48;7.30;;;5.00;;
3341;SDS011;1684;50.748;6.154;2024-02-16T14:55:17;11.30;;;6.00;;
3341;SDS011;1684;50.748;6.154;2024-02-16T14:57:45;6.87;;;4.80;;
3341;SDS011;1684;50.748;6.154;2024-02-16T15:00:24;5.87;;;3.90;;
3341;SDS011;1684;50.748;6.154;2024-02-16T15:02:53;7.40;;;3.63;;
3341;SDS011;1684;50.748;6.154;2024-02-16T15:05:22;8.70;;;3.60;;
3341;SDS011;1684;50.748;6.154;2024-02-16T15:07:51;4.83;;;3.20;;
3341;SDS011;1684;50.748;6.154;2024-02-16T15:10:19;2.40;;;0.40;;
3341;SDS011;1684;50.748;6.154;2024-02-16T15:12:48;2.40;;;0.40;;
3341;SDS011;1684;50.748;6.154;2024-02-16T15:15:18;2.40;;;0.37;;
3341;SDS011;1684;50.748;6.154;2024-02-16T15:17:46;2.40;;;0.30;;
3341;SDS011;1684;50.748;6.154;2024-02-16T15:20:15;2.40;;;0.40;;
3341;SDS011;1684;50.748;6.154;2024-02-16T15:22:43;2.40;;;0.40;;
3341;SDS011;1684;50.748;6.154;2024-02-16T15:25:19;2.40;;;0.30;;